Las Cruces, NM (88001)

9:59 AM MDT on April 26, 2017 (GMT -0600)
Las Cruces | | Change Station
Active Advisory: Fire Weather Watch

Elev 4022 ft 32.33 °N, 106.76 °W | Updated 1 minute ago

Clear
Clear
63.7 °F
Feels Like 63.7 °F
N
5.0
Wind Variable Wind from NNE
Gusts 14.0 mph

Today
High -- | Low -- °F
--% Chance of Precip.
Yesterday
High -- | Low -- °F
Precip. -- in
Pressure 29.95 in
Visibility 10.0 miles
Clouds Clear
Dew Point 24 °F
Humidity 22%
Rainfall 0.00 in
Snow Depth Not available.
6:25 AM 7:44 PM
New Moon, 0% visible
METAR KLRU 261555Z AUTO 33007KT 10SM CLR 17/M07 A2995 RMK AO2 T01691067
Pressure 29.95 in
Visibility 10.0 miles
Clouds Clear
Dew Point 24 °F
Humidity 22%
Rainfall 0.00 in
Snow Depth Not available.
6:25 AM 7:44 PM
New Moon, 0% visible
METAR KLRU 261555Z AUTO 33007KT 10SM CLR 17/M07 A2995 RMK AO2 T01691067

Get Your Daily Forecast Email!

Thanks for signing up!

Be on the lookout for a verification email in your inbox.

You'll start receiving severe weather alerts in your inbox..

×

10-Day Weather Forecast

Almanac

Astronomy

Apr. 26, 2017 Rise Set
Actual Time
Civil Twilight
Nautical Twilight
Astronomical Twilight
Moon
Length of Visible Light
Length of Day
Tomorrow will be .
, % of the Moon is Illuminated

Today's Extremes

State Highs State Lows

Community

WunderPhotos

WunderBlog® & News

Nearby

Air Quality

  Air Quality AQ Index Pollutant
Not available.

Snow Depth

Station Depth Elevation

Earthquake Activity

City Distance Mag. Time & Date
Minimum magnitude displayed is 2.5.

Coastal Water Temperatures

Place Temperature

Stations

Nearby Weather Stations

Station Location Temp. Windchill Dew Point Humidity Wind Precip. Elev Updated Type
                   

Watches & Warnings

Fire Weather Watch
Issued: 6:46 AM MDT Apr. 26, 2017 – National Weather Service

... Fire Weather Watch remains in effect from Thursday afternoon
through Thursday evening for strong winds and low relative
humidities for fire weather zones 055, 056, 111, 112, and 113... ..

.Fire Weather Watch in effect from Thursday afternoon through
Thursday evening for strong winds and low relative humidities...

* winds... west 20 to 30 mph with gusts to 40 mph.

* Humidity... 9 to 15 percent.

* Highest threat... lowland locations south and east of a line
from Deming to Alamogordo.

* Impacts... any fires that develop will likely spread rapidly.
Outdoor burning is not recommended.

Precautionary/preparedness actions...

A red flag warning means that critical fire weather conditions
are either occurring now, or will shortly. A combination of
strong winds, low relative humidity, and warm temperatures can
contribute to extreme fire behavior.

A Fire Weather Watch means that critical fire weather conditions
are forecast to occur. Listen for later forecasts and possible
red flag warnings.


26